Karnak, North Dakota
Current Conditions -  °F | °C
As of 4:35 PM on Friday 19 Dec 2014 (Local Time) from KBAC Reporting Station
Haze Haze  
Wind Chill: 19°   Ceiling: 600
Heat Index: 28°   Visibility: 5mi
Dew Point: 28°   Wind: 10mph
Humidity: 100%   Direction: 210°SSW
Pressure: 29.98"   Gusts: NA
Location:  47.2843°N, 98.1073°W
Report Text: KBAC 192235Z AUTO 21009KT 5SM BR OVC006 M02/M02 A2998 RMK AO2
Loading
Personal Weather Stations






























Interactive Weather Map New forecast layout! Learn more

10-Day Weather Forecast

Advertisements
Track Severe Weather on mobile